<?xml version="1.0" encoding="UTF-8" standalone="no" ?>
<gpx xmlns="http://www.topografix.com/GPX/1/1" xmlns:xsi="http://www.w3.org/2001/XMLSchema-instance" xsi:schemaLocation="http://www.topografix.com/GPX/1/1 http://www.topografix.com/GPX/1/1/gpx.xsd" version="1.1" creator="VisuGPX - https://www.visugpx.com">
  <metadata>
    <name>Santeuil Vallée de la Viosne 27 km-15765732</name>
  </metadata>
  <trk>
    <name><![CDATA[Santeuil Vallée de la Viosne 27 km-15765732]]></name>
    <extensions>
      <line xmlns="http://www.topografix.com/GPX/gpx_style/0/2">
        <color>0000FF</color>
        <width>4</width>
      </line>
    </extensions>
    <trkseg>
      <trkpt lat="49.12481" lon="1.93737">
        <ele>63.6</ele>
        <time>2022-12-04T15:20:58Z</time>
      </trkpt>
      <trkpt lat="49.12484" lon="1.93742">
        <ele>62.5</ele>
        <time>2022-12-04T15:21:02Z</time>
      </trkpt>
      <trkpt lat="49.12453" lon="1.93791">
        <ele>59.3</ele>
        <time>2022-12-04T15:21:37Z</time>
      </trkpt>
      <trkpt lat="49.12399" lon="1.93813">
        <ele>57.7</ele>
        <time>2022-12-04T15:22:22Z</time>
      </trkpt>
      <trkpt lat="49.1238" lon="1.93823">
        <ele>58.1</ele>
        <time>2022-12-04T15:22:38Z</time>
      </trkpt>
      <trkpt lat="49.12365" lon="1.93844">
        <ele>59.6</ele>
        <time>2022-12-04T15:22:54Z</time>
      </trkpt>
      <trkpt lat="49.12335" lon="1.93984">
        <ele>60.5</ele>
        <time>2022-12-04T15:24:12Z</time>
      </trkpt>
      <trkpt lat="49.12324" lon="1.94009">
        <ele>58.9</ele>
        <time>2022-12-04T15:24:27Z</time>
      </trkpt>
      <trkpt lat="49.12294" lon="1.94029">
        <ele>58</ele>
        <time>2022-12-04T15:24:54Z</time>
      </trkpt>
      <trkpt lat="49.1227" lon="1.94039">
        <ele>57.5</ele>
        <time>2022-12-04T15:25:13Z</time>
      </trkpt>
      <trkpt lat="49.1224" lon="1.9404">
        <ele>58</ele>
        <time>2022-12-04T15:25:38Z</time>
      </trkpt>
      <trkpt lat="49.12256" lon="1.94089">
        <ele>55.6</ele>
        <time>2022-12-04T15:26:06Z</time>
      </trkpt>
      <trkpt lat="49.12258" lon="1.94105">
        <ele>54.9</ele>
        <time>2022-12-04T15:26:15Z</time>
      </trkpt>
      <trkpt lat="49.1227" lon="1.94158">
        <ele>53.1</ele>
        <time>2022-12-04T15:26:44Z</time>
      </trkpt>
      <trkpt lat="49.1228" lon="1.94182">
        <ele>53</ele>
        <time>2022-12-04T15:26:59Z</time>
      </trkpt>
      <trkpt lat="49.12338" lon="1.94281">
        <ele>57.7</ele>
        <time>2022-12-04T15:28:09Z</time>
      </trkpt>
      <trkpt lat="49.12351" lon="1.94305">
        <ele>60.9</ele>
        <time>2022-12-04T15:28:25Z</time>
      </trkpt>
      <trkpt lat="49.12392" lon="1.94408">
        <ele>67.8</ele>
        <time>2022-12-04T15:29:28Z</time>
      </trkpt>
      <trkpt lat="49.12438" lon="1.94626">
        <ele>75.2</ele>
        <time>2022-12-04T15:31:28Z</time>
      </trkpt>
      <trkpt lat="49.12411" lon="1.94656">
        <ele>73.2</ele>
        <time>2022-12-04T15:31:55Z</time>
      </trkpt>
      <trkpt lat="49.12431" lon="1.94715">
        <ele>66.9</ele>
        <time>2022-12-04T15:32:30Z</time>
      </trkpt>
      <trkpt lat="49.12433" lon="1.94771">
        <ele>60.6</ele>
        <time>2022-12-04T15:32:59Z</time>
      </trkpt>
      <trkpt lat="49.12438" lon="1.94794">
        <ele>58.3</ele>
        <time>2022-12-04T15:33:12Z</time>
      </trkpt>
      <trkpt lat="49.12424" lon="1.94809">
        <ele>58.1</ele>
        <time>2022-12-04T15:33:26Z</time>
      </trkpt>
      <trkpt lat="49.12422" lon="1.94823">
        <ele>56.9</ele>
        <time>2022-12-04T15:33:33Z</time>
      </trkpt>
      <trkpt lat="49.12431" lon="1.94845">
        <ele>55.1</ele>
        <time>2022-12-04T15:33:47Z</time>
      </trkpt>
      <trkpt lat="49.12415" lon="1.94882">
        <ele>55</ele>
        <time>2022-12-04T15:34:10Z</time>
      </trkpt>
      <trkpt lat="49.12432" lon="1.94905">
        <ele>54.2</ele>
        <time>2022-12-04T15:34:28Z</time>
      </trkpt>
      <trkpt lat="49.12453" lon="1.9493">
        <ele>53.4</ele>
        <time>2022-12-04T15:34:49Z</time>
      </trkpt>
      <trkpt lat="49.12468" lon="1.94947">
        <ele>53</ele>
        <time>2022-12-04T15:35:04Z</time>
      </trkpt>
      <trkpt lat="49.12553" lon="1.95026">
        <ele>54.8</ele>
        <time>2022-12-04T15:36:24Z</time>
      </trkpt>
      <trkpt lat="49.1255" lon="1.95053">
        <ele>55.5</ele>
        <time>2022-12-04T15:36:38Z</time>
      </trkpt>
      <trkpt lat="49.12549" lon="1.95113">
        <ele>59.7</ele>
        <time>2022-12-04T15:37:10Z</time>
      </trkpt>
      <trkpt lat="49.12545" lon="1.95152">
        <ele>62.4</ele>
        <time>2022-12-04T15:37:30Z</time>
      </trkpt>
      <trkpt lat="49.12557" lon="1.95174">
        <ele>65.8</ele>
        <time>2022-12-04T15:37:45Z</time>
      </trkpt>
      <trkpt lat="49.12568" lon="1.95176">
        <ele>68.4</ele>
        <time>2022-12-04T15:37:54Z</time>
      </trkpt>
      <trkpt lat="49.12579" lon="1.95171">
        <ele>70.4</ele>
        <time>2022-12-04T15:38:03Z</time>
      </trkpt>
      <trkpt lat="49.12581" lon="1.95176">
        <ele>71.2</ele>
        <time>2022-12-04T15:38:07Z</time>
      </trkpt>
      <trkpt lat="49.12578" lon="1.95196">
        <ele>71.9</ele>
        <time>2022-12-04T15:38:17Z</time>
      </trkpt>
      <trkpt lat="49.1258" lon="1.9522">
        <ele>73.4</ele>
        <time>2022-12-04T15:38:30Z</time>
      </trkpt>
      <trkpt lat="49.12579" lon="1.95239">
        <ele>74.7</ele>
        <time>2022-12-04T15:38:40Z</time>
      </trkpt>
      <trkpt lat="49.12578" lon="1.95248">
        <ele>75.3</ele>
        <time>2022-12-04T15:38:45Z</time>
      </trkpt>
      <trkpt lat="49.12567" lon="1.95288">
        <ele>77.7</ele>
        <time>2022-12-04T15:39:07Z</time>
      </trkpt>
      <trkpt lat="49.12564" lon="1.95325">
        <ele>80.3</ele>
        <time>2022-12-04T15:39:27Z</time>
      </trkpt>
      <trkpt lat="49.12565" lon="1.9534">
        <ele>81.7</ele>
        <time>2022-12-04T15:39:35Z</time>
      </trkpt>
      <trkpt lat="49.12572" lon="1.95377">
        <ele>85.1</ele>
        <time>2022-12-04T15:39:55Z</time>
      </trkpt>
      <trkpt lat="49.12573" lon="1.95404">
        <ele>86.4</ele>
        <time>2022-12-04T15:40:09Z</time>
      </trkpt>
      <trkpt lat="49.1258" lon="1.95428">
        <ele>88</ele>
        <time>2022-12-04T15:40:23Z</time>
      </trkpt>
      <trkpt lat="49.12586" lon="1.95457">
        <ele>89.7</ele>
        <time>2022-12-04T15:40:39Z</time>
      </trkpt>
      <trkpt lat="49.12591" lon="1.9547">
        <ele>90.5</ele>
        <time>2022-12-04T15:40:47Z</time>
      </trkpt>
      <trkpt lat="49.12592" lon="1.95504">
        <ele>89.8</ele>
        <time>2022-12-04T15:41:05Z</time>
      </trkpt>
      <trkpt lat="49.1261" lon="1.95604">
        <ele>89.7</ele>
        <time>2022-12-04T15:41:59Z</time>
      </trkpt>
      <trkpt lat="49.1262" lon="1.95736">
        <ele>89</ele>
        <time>2022-12-04T15:43:09Z</time>
      </trkpt>
      <trkpt lat="49.12623" lon="1.95799">
        <ele>89.3</ele>
        <time>2022-12-04T15:43:42Z</time>
      </trkpt>
      <trkpt lat="49.12686" lon="1.95937">
        <ele>90.8</ele>
        <time>2022-12-04T15:45:10Z</time>
      </trkpt>
      <trkpt lat="49.12867" lon="1.96307">
        <ele>92</ele>
        <time>2022-12-04T15:49:12Z</time>
      </trkpt>
      <trkpt lat="49.13031" lon="1.96053">
        <ele>98.2</ele>
        <time>2022-12-04T15:52:19Z</time>
      </trkpt>
      <trkpt lat="49.13032" lon="1.96055">
        <ele>98.2</ele>
        <time>2022-12-04T15:52:20Z</time>
      </trkpt>
      <trkpt lat="49.13134" lon="1.95912">
        <ele>102</ele>
        <time>2022-12-04T15:54:11Z</time>
      </trkpt>
      <trkpt lat="49.1318" lon="1.95833">
        <ele>103.5</ele>
        <time>2022-12-04T15:55:06Z</time>
      </trkpt>
      <trkpt lat="49.13201" lon="1.95783">
        <ele>104</ele>
        <time>2022-12-04T15:55:38Z</time>
      </trkpt>
      <trkpt lat="49.13253" lon="1.9561">
        <ele>101.1</ele>
        <time>2022-12-04T15:57:17Z</time>
      </trkpt>
      <trkpt lat="49.13273" lon="1.95513">
        <ele>100</ele>
        <time>2022-12-04T15:58:11Z</time>
      </trkpt>
      <trkpt lat="49.13299" lon="1.95354">
        <ele>97.5</ele>
        <time>2022-12-04T15:59:37Z</time>
      </trkpt>
      <trkpt lat="49.13323" lon="1.95293">
        <ele>95.9</ele>
        <time>2022-12-04T16:00:14Z</time>
      </trkpt>
      <trkpt lat="49.13328" lon="1.95285">
        <ele>95.5</ele>
        <time>2022-12-04T16:00:20Z</time>
      </trkpt>
      <trkpt lat="49.13356" lon="1.95187">
        <ele>92.5</ele>
        <time>2022-12-04T16:01:16Z</time>
      </trkpt>
      <trkpt lat="49.13361" lon="1.95154">
        <ele>92.5</ele>
        <time>2022-12-04T16:01:33Z</time>
      </trkpt>
      <trkpt lat="49.13369" lon="1.95061">
        <ele>90.8</ele>
        <time>2022-12-04T16:02:22Z</time>
      </trkpt>
      <trkpt lat="49.13378" lon="1.95016">
        <ele>89.6</ele>
        <time>2022-12-04T16:02:47Z</time>
      </trkpt>
      <trkpt lat="49.13387" lon="1.94988">
        <ele>88.9</ele>
        <time>2022-12-04T16:03:03Z</time>
      </trkpt>
      <trkpt lat="49.13465" lon="1.94795">
        <ele>78.4</ele>
        <time>2022-12-04T16:05:02Z</time>
      </trkpt>
      <trkpt lat="49.13601" lon="1.94716">
        <ele>75.4</ele>
        <time>2022-12-04T16:06:59Z</time>
      </trkpt>
      <trkpt lat="49.13718" lon="1.94607">
        <ele>78.2</ele>
        <time>2022-12-04T16:08:49Z</time>
      </trkpt>
      <trkpt lat="49.13752" lon="1.94524">
        <ele>74.7</ele>
        <time>2022-12-04T16:09:40Z</time>
      </trkpt>
      <trkpt lat="49.13771" lon="1.94501">
        <ele>73.6</ele>
        <time>2022-12-04T16:09:59Z</time>
      </trkpt>
      <trkpt lat="49.13773" lon="1.94402">
        <ele>68.5</ele>
        <time>2022-12-04T16:10:51Z</time>
      </trkpt>
      <trkpt lat="49.13769" lon="1.94378">
        <ele>66.9</ele>
        <time>2022-12-04T16:11:04Z</time>
      </trkpt>
      <trkpt lat="49.1376" lon="1.94349">
        <ele>64.6</ele>
        <time>2022-12-04T16:11:21Z</time>
      </trkpt>
      <trkpt lat="49.13754" lon="1.94335">
        <ele>63.4</ele>
        <time>2022-12-04T16:11:30Z</time>
      </trkpt>
      <trkpt lat="49.13786" lon="1.94299">
        <ele>64.4</ele>
        <time>2022-12-04T16:12:01Z</time>
      </trkpt>
      <trkpt lat="49.13805" lon="1.94294">
        <ele>65.5</ele>
        <time>2022-12-04T16:12:17Z</time>
      </trkpt>
      <trkpt lat="49.13823" lon="1.94268">
        <ele>66.5</ele>
        <time>2022-12-04T16:12:37Z</time>
      </trkpt>
      <trkpt lat="49.13812" lon="1.94245">
        <ele>64.7</ele>
        <time>2022-12-04T16:12:52Z</time>
      </trkpt>
      <trkpt lat="49.13822" lon="1.94227">
        <ele>65.8</ele>
        <time>2022-12-04T16:13:04Z</time>
      </trkpt>
      <trkpt lat="49.13894" lon="1.94071">
        <ele>66.8</ele>
        <time>2022-12-04T16:14:44Z</time>
      </trkpt>
      <trkpt lat="49.1394" lon="1.94006">
        <ele>67.9</ele>
        <time>2022-12-04T16:15:34Z</time>
      </trkpt>
      <trkpt lat="49.13967" lon="1.93987">
        <ele>68.3</ele>
        <time>2022-12-04T16:15:58Z</time>
      </trkpt>
      <trkpt lat="49.13994" lon="1.9398">
        <ele>69.1</ele>
        <time>2022-12-04T16:16:20Z</time>
      </trkpt>
      <trkpt lat="49.14059" lon="1.93978">
        <ele>69.7</ele>
        <time>2022-12-04T16:17:12Z</time>
      </trkpt>
      <trkpt lat="49.14215" lon="1.9398">
        <ele>69.7</ele>
        <time>2022-12-04T16:19:17Z</time>
      </trkpt>
      <trkpt lat="49.14303" lon="1.94004">
        <ele>70.6</ele>
        <time>2022-12-04T16:20:28Z</time>
      </trkpt>
      <trkpt lat="49.1433" lon="1.94004">
        <ele>71.6</ele>
        <time>2022-12-04T16:20:50Z</time>
      </trkpt>
      <trkpt lat="49.14454" lon="1.93941">
        <ele>63.3</ele>
        <time>2022-12-04T16:22:35Z</time>
      </trkpt>
      <trkpt lat="49.14475" lon="1.93938">
        <ele>62.2</ele>
        <time>2022-12-04T16:22:52Z</time>
      </trkpt>
      <trkpt lat="49.14494" lon="1.93942">
        <ele>61.3</ele>
        <time>2022-12-04T16:23:07Z</time>
      </trkpt>
      <trkpt lat="49.14565" lon="1.94003">
        <ele>58</ele>
        <time>2022-12-04T16:24:12Z</time>
      </trkpt>
      <trkpt lat="49.14587" lon="1.94002">
        <ele>58</ele>
        <time>2022-12-04T16:24:30Z</time>
      </trkpt>
      <trkpt lat="49.14608" lon="1.93993">
        <ele>58</ele>
        <time>2022-12-04T16:24:47Z</time>
      </trkpt>
      <trkpt lat="49.14636" lon="1.9396">
        <ele>61.7</ele>
        <time>2022-12-04T16:25:16Z</time>
      </trkpt>
      <trkpt lat="49.14651" lon="1.94237">
        <ele>73</ele>
        <time>2022-12-04T16:27:41Z</time>
      </trkpt>
      <trkpt lat="49.14778" lon="1.94396">
        <ele>86.3</ele>
        <time>2022-12-04T16:29:53Z</time>
      </trkpt>
      <trkpt lat="49.1488" lon="1.94594">
        <ele>92</ele>
        <time>2022-12-04T16:32:05Z</time>
      </trkpt>
      <trkpt lat="49.14927" lon="1.94632">
        <ele>91.5</ele>
        <time>2022-12-04T16:32:47Z</time>
      </trkpt>
      <trkpt lat="49.1497" lon="1.94672">
        <ele>92</ele>
        <time>2022-12-04T16:33:27Z</time>
      </trkpt>
      <trkpt lat="49.14929" lon="1.95058">
        <ele>98.1</ele>
        <time>2022-12-04T16:36:52Z</time>
      </trkpt>
      <trkpt lat="49.14929" lon="1.95069">
        <ele>98.5</ele>
        <time>2022-12-04T16:36:58Z</time>
      </trkpt>
      <trkpt lat="49.14934" lon="1.95083">
        <ele>99</ele>
        <time>2022-12-04T16:37:06Z</time>
      </trkpt>
      <trkpt lat="49.14939" lon="1.95089">
        <ele>99.2</ele>
        <time>2022-12-04T16:37:11Z</time>
      </trkpt>
      <trkpt lat="49.14983" lon="1.95094">
        <ele>99</ele>
        <time>2022-12-04T16:37:47Z</time>
      </trkpt>
      <trkpt lat="49.15039" lon="1.95118">
        <ele>98.7</ele>
        <time>2022-12-04T16:38:33Z</time>
      </trkpt>
      <trkpt lat="49.15234" lon="1.95279">
        <ele>99</ele>
        <time>2022-12-04T16:41:31Z</time>
      </trkpt>
      <trkpt lat="49.15367" lon="1.95383">
        <ele>103</ele>
        <time>2022-12-04T16:43:30Z</time>
      </trkpt>
      <trkpt lat="49.1543" lon="1.95421">
        <ele>103.5</ele>
        <time>2022-12-04T16:44:25Z</time>
      </trkpt>
      <trkpt lat="49.15472" lon="1.95477">
        <ele>103.2</ele>
        <time>2022-12-04T16:45:03Z</time>
      </trkpt>
      <trkpt lat="49.15468" lon="1.95494">
        <ele>103.9</ele>
        <time>2022-12-04T16:45:20Z</time>
      </trkpt>
      <trkpt lat="49.15537" lon="1.95471">
        <ele>100.7</ele>
        <time>2022-12-04T16:46:17Z</time>
      </trkpt>
      <trkpt lat="49.15578" lon="1.95474">
        <ele>99.3</ele>
        <time>2022-12-04T16:46:50Z</time>
      </trkpt>
      <trkpt lat="49.15626" lon="1.95489">
        <ele>96.5</ele>
        <time>2022-12-04T16:47:29Z</time>
      </trkpt>
      <trkpt lat="49.15716" lon="1.95477">
        <ele>94</ele>
        <time>2022-12-04T16:48:41Z</time>
      </trkpt>
      <trkpt lat="49.15861" lon="1.95443">
        <ele>102</ele>
        <time>2022-12-04T16:50:39Z</time>
      </trkpt>
      <trkpt lat="49.16244" lon="1.95301">
        <ele>108.8</ele>
        <time>2022-12-04T16:55:54Z</time>
      </trkpt>
      <trkpt lat="49.16278" lon="1.95298">
        <ele>109.7</ele>
        <time>2022-12-04T16:56:21Z</time>
      </trkpt>
      <trkpt lat="49.16378" lon="1.95301">
        <ele>108.2</ele>
        <time>2022-12-04T16:57:41Z</time>
      </trkpt>
      <trkpt lat="49.16459" lon="1.95288">
        <ele>107.4</ele>
        <time>2022-12-04T16:58:47Z</time>
      </trkpt>
      <trkpt lat="49.16557" lon="1.95277">
        <ele>109</ele>
        <time>2022-12-04T17:00:05Z</time>
      </trkpt>
      <trkpt lat="49.16697" lon="1.95281">
        <ele>114.1</ele>
        <time>2022-12-04T17:01:57Z</time>
      </trkpt>
      <trkpt lat="49.16868" lon="1.95322">
        <ele>110.9</ele>
        <time>2022-12-04T17:04:16Z</time>
      </trkpt>
      <trkpt lat="49.16918" lon="1.95308">
        <ele>110</ele>
        <time>2022-12-04T17:04:57Z</time>
      </trkpt>
      <trkpt lat="49.17002" lon="1.95291">
        <ele>104.8</ele>
        <time>2022-12-04T17:06:05Z</time>
      </trkpt>
      <trkpt lat="49.17068" lon="1.95282">
        <ele>100.6</ele>
        <time>2022-12-04T17:06:58Z</time>
      </trkpt>
      <trkpt lat="49.17089" lon="1.95275">
        <ele>99.9</ele>
        <time>2022-12-04T17:07:15Z</time>
      </trkpt>
      <trkpt lat="49.17139" lon="1.9525">
        <ele>100</ele>
        <time>2022-12-04T17:07:57Z</time>
      </trkpt>
      <trkpt lat="49.17147" lon="1.95248">
        <ele>100.3</ele>
        <time>2022-12-04T17:08:04Z</time>
      </trkpt>
      <trkpt lat="49.17159" lon="1.95249">
        <ele>100.7</ele>
        <time>2022-12-04T17:08:13Z</time>
      </trkpt>
      <trkpt lat="49.17271" lon="1.95312">
        <ele>105.6</ele>
        <time>2022-12-04T17:09:49Z</time>
      </trkpt>
      <trkpt lat="49.17439" lon="1.9537">
        <ele>112.4</ele>
        <time>2022-12-04T17:12:07Z</time>
      </trkpt>
      <trkpt lat="49.17462" lon="1.95376">
        <ele>112.5</ele>
        <time>2022-12-04T17:12:25Z</time>
      </trkpt>
      <trkpt lat="49.17485" lon="1.95376">
        <ele>112.1</ele>
        <time>2022-12-04T17:12:44Z</time>
      </trkpt>
      <trkpt lat="49.17521" lon="1.95365">
        <ele>111</ele>
        <time>2022-12-04T17:13:13Z</time>
      </trkpt>
      <trkpt lat="49.17546" lon="1.95351">
        <ele>110.2</ele>
        <time>2022-12-04T17:13:34Z</time>
      </trkpt>
      <trkpt lat="49.17564" lon="1.95337">
        <ele>109.4</ele>
        <time>2022-12-04T17:13:51Z</time>
      </trkpt>
      <trkpt lat="49.17626" lon="1.9528">
        <ele>105</ele>
        <time>2022-12-04T17:14:48Z</time>
      </trkpt>
      <trkpt lat="49.1764" lon="1.9527">
        <ele>104</ele>
        <time>2022-12-04T17:15:01Z</time>
      </trkpt>
      <trkpt lat="49.1766" lon="1.95264">
        <ele>103.2</ele>
        <time>2022-12-04T17:15:17Z</time>
      </trkpt>
      <trkpt lat="49.17678" lon="1.95263">
        <ele>102.4</ele>
        <time>2022-12-04T17:15:32Z</time>
      </trkpt>
      <trkpt lat="49.1775" lon="1.95266">
        <ele>100.6</ele>
        <time>2022-12-04T17:16:29Z</time>
      </trkpt>
      <trkpt lat="49.17766" lon="1.95263">
        <ele>100.2</ele>
        <time>2022-12-04T17:16:42Z</time>
      </trkpt>
      <trkpt lat="49.17784" lon="1.95255">
        <ele>100</ele>
        <time>2022-12-04T17:16:57Z</time>
      </trkpt>
      <trkpt lat="49.17805" lon="1.95239">
        <ele>100</ele>
        <time>2022-12-04T17:17:16Z</time>
      </trkpt>
      <trkpt lat="49.17825" lon="1.95218">
        <ele>99.8</ele>
        <time>2022-12-04T17:17:35Z</time>
      </trkpt>
      <trkpt lat="49.17839" lon="1.95206">
        <ele>99.5</ele>
        <time>2022-12-04T17:17:48Z</time>
      </trkpt>
      <trkpt lat="49.17852" lon="1.952">
        <ele>99.7</ele>
        <time>2022-12-04T17:17:59Z</time>
      </trkpt>
      <trkpt lat="49.17887" lon="1.95204">
        <ele>100.3</ele>
        <time>2022-12-04T17:18:27Z</time>
      </trkpt>
      <trkpt lat="49.17944" lon="1.95183">
        <ele>102</ele>
        <time>2022-12-04T17:19:14Z</time>
      </trkpt>
      <trkpt lat="49.17955" lon="1.95181">
        <ele>102.8</ele>
        <time>2022-12-04T17:19:23Z</time>
      </trkpt>
      <trkpt lat="49.17998" lon="1.95201">
        <ele>104.2</ele>
        <time>2022-12-04T17:19:59Z</time>
      </trkpt>
      <trkpt lat="49.18053" lon="1.9493">
        <ele>99</ele>
        <time>2022-12-04T17:22:28Z</time>
      </trkpt>
      <trkpt lat="49.18062" lon="1.94898">
        <ele>97.8</ele>
        <time>2022-12-04T17:22:46Z</time>
      </trkpt>
      <trkpt lat="49.18071" lon="1.94895">
        <ele>97</ele>
        <time>2022-12-04T17:22:53Z</time>
      </trkpt>
      <trkpt lat="49.1808" lon="1.94905">
        <ele>96.3</ele>
        <time>2022-12-04T17:23:02Z</time>
      </trkpt>
      <trkpt lat="49.1809" lon="1.94964">
        <ele>94.9</ele>
        <time>2022-12-04T17:23:34Z</time>
      </trkpt>
      <trkpt lat="49.18097" lon="1.9503">
        <ele>95.1</ele>
        <time>2022-12-04T17:24:09Z</time>
      </trkpt>
      <trkpt lat="49.18106" lon="1.95056">
        <ele>93.9</ele>
        <time>2022-12-04T17:24:24Z</time>
      </trkpt>
      <trkpt lat="49.18121" lon="1.95076">
        <ele>91.9</ele>
        <time>2022-12-04T17:24:40Z</time>
      </trkpt>
      <trkpt lat="49.1817" lon="1.95129">
        <ele>85.9</ele>
        <time>2022-12-04T17:25:28Z</time>
      </trkpt>
      <trkpt lat="49.18223" lon="1.95177">
        <ele>81.7</ele>
        <time>2022-12-04T17:26:18Z</time>
      </trkpt>
      <trkpt lat="49.18253" lon="1.95201">
        <ele>80.1</ele>
        <time>2022-12-04T17:26:45Z</time>
      </trkpt>
      <trkpt lat="49.18273" lon="1.95224">
        <ele>80.3</ele>
        <time>2022-12-04T17:27:05Z</time>
      </trkpt>
      <trkpt lat="49.183" lon="1.95249">
        <ele>80.4</ele>
        <time>2022-12-04T17:27:30Z</time>
      </trkpt>
      <trkpt lat="49.18318" lon="1.95223">
        <ele>80</ele>
        <time>2022-12-04T17:27:50Z</time>
      </trkpt>
      <trkpt lat="49.18337" lon="1.95189">
        <ele>82.4</ele>
        <time>2022-12-04T17:28:13Z</time>
      </trkpt>
      <trkpt lat="49.18342" lon="1.95174">
        <ele>85.1</ele>
        <time>2022-12-04T17:28:22Z</time>
      </trkpt>
      <trkpt lat="49.18342" lon="1.95161">
        <ele>86.5</ele>
        <time>2022-12-04T17:28:29Z</time>
      </trkpt>
      <trkpt lat="49.18296" lon="1.95017">
        <ele>93.4</ele>
        <time>2022-12-04T17:29:53Z</time>
      </trkpt>
      <trkpt lat="49.18289" lon="1.94987">
        <ele>93.9</ele>
        <time>2022-12-04T17:30:09Z</time>
      </trkpt>
      <trkpt lat="49.18288" lon="1.94976">
        <ele>94</ele>
        <time>2022-12-04T17:30:15Z</time>
      </trkpt>
      <trkpt lat="49.18297" lon="1.94917">
        <ele>95.8</ele>
        <time>2022-12-04T17:30:47Z</time>
      </trkpt>
      <trkpt lat="49.1831" lon="1.94893">
        <ele>97.3</ele>
        <time>2022-12-04T17:31:03Z</time>
      </trkpt>
      <trkpt lat="49.18328" lon="1.94871">
        <ele>98.6</ele>
        <time>2022-12-04T17:31:22Z</time>
      </trkpt>
      <trkpt lat="49.18419" lon="1.94815">
        <ele>104.1</ele>
        <time>2022-12-04T17:32:40Z</time>
      </trkpt>
      <trkpt lat="49.18468" lon="1.94778">
        <ele>105.8</ele>
        <time>2022-12-04T17:33:24Z</time>
      </trkpt>
      <trkpt lat="49.18505" lon="1.94737">
        <ele>108.4</ele>
        <time>2022-12-04T17:34:01Z</time>
      </trkpt>
      <trkpt lat="49.18446" lon="1.94631">
        <ele>105.1</ele>
        <time>2022-12-04T17:35:13Z</time>
      </trkpt>
      <trkpt lat="49.18337" lon="1.94423">
        <ele>106</ele>
        <time>2022-12-04T17:37:33Z</time>
      </trkpt>
      <trkpt lat="49.18249" lon="1.94266">
        <ele>104</ele>
        <time>2022-12-04T17:39:21Z</time>
      </trkpt>
      <trkpt lat="49.18185" lon="1.94144">
        <ele>102.5</ele>
        <time>2022-12-04T17:40:43Z</time>
      </trkpt>
      <trkpt lat="49.18113" lon="1.94029">
        <ele>104.9</ele>
        <time>2022-12-04T17:42:06Z</time>
      </trkpt>
      <trkpt lat="49.18086" lon="1.93989">
        <ele>105</ele>
        <time>2022-12-04T17:42:37Z</time>
      </trkpt>
      <trkpt lat="49.18056" lon="1.9395">
        <ele>105</ele>
        <time>2022-12-04T17:43:08Z</time>
      </trkpt>
      <trkpt lat="49.17959" lon="1.93809">
        <ele>102.6</ele>
        <time>2022-12-04T17:44:55Z</time>
      </trkpt>
      <trkpt lat="49.17921" lon="1.9376">
        <ele>101.1</ele>
        <time>2022-12-04T17:45:35Z</time>
      </trkpt>
      <trkpt lat="49.17886" lon="1.93698">
        <ele>99.9</ele>
        <time>2022-12-04T17:46:18Z</time>
      </trkpt>
      <trkpt lat="49.17825" lon="1.93515">
        <ele>97</ele>
        <time>2022-12-04T17:48:05Z</time>
      </trkpt>
      <trkpt lat="49.17819" lon="1.93419">
        <ele>95.5</ele>
        <time>2022-12-04T17:48:56Z</time>
      </trkpt>
      <trkpt lat="49.1783" lon="1.93321">
        <ele>91.2</ele>
        <time>2022-12-04T17:49:48Z</time>
      </trkpt>
      <trkpt lat="49.17836" lon="1.93299">
        <ele>89.2</ele>
        <time>2022-12-04T17:50:00Z</time>
      </trkpt>
      <trkpt lat="49.17841" lon="1.93288">
        <ele>87.8</ele>
        <time>2022-12-04T17:50:07Z</time>
      </trkpt>
      <trkpt lat="49.17848" lon="1.93284">
        <ele>87.1</ele>
        <time>2022-12-04T17:50:13Z</time>
      </trkpt>
      <trkpt lat="49.17865" lon="1.93261">
        <ele>82.2</ele>
      </trkpt>
      <trkpt lat="49.17784" lon="1.93207">
        <ele>79.1</ele>
      </trkpt>
      <trkpt lat="49.17762" lon="1.93179">
        <ele>77.1</ele>
      </trkpt>
      <trkpt lat="49.17776" lon="1.93174">
        <ele>74.4</ele>
      </trkpt>
      <trkpt lat="49.178" lon="1.93155">
        <ele>70.4</ele>
      </trkpt>
      <trkpt lat="49.17808" lon="1.93142">
        <ele>69.3</ele>
      </trkpt>
      <trkpt lat="49.17822" lon="1.93144">
        <ele>69.7</ele>
      </trkpt>
      <trkpt lat="49.17846" lon="1.93159">
        <ele>69.2</ele>
      </trkpt>
      <trkpt lat="49.17851" lon="1.93158">
        <ele>69</ele>
      </trkpt>
      <trkpt lat="49.17867" lon="1.93149">
        <ele>68.5</ele>
      </trkpt>
      <trkpt lat="49.17879" lon="1.93137">
        <ele>68.5</ele>
      </trkpt>
      <trkpt lat="49.17894" lon="1.93134">
        <ele>68.3</ele>
      </trkpt>
      <trkpt lat="49.17913" lon="1.93163">
        <ele>68</ele>
      </trkpt>
      <trkpt lat="49.17919" lon="1.93183">
        <ele>68.6</ele>
      </trkpt>
      <trkpt lat="49.17921" lon="1.93181">
        <ele>68.5</ele>
      </trkpt>
      <trkpt lat="49.17939" lon="1.93093">
        <ele>68.3</ele>
      </trkpt>
      <trkpt lat="49.17941" lon="1.93081">
        <ele>68.4</ele>
      </trkpt>
      <trkpt lat="49.17942" lon="1.93078">
        <ele>68.4</ele>
      </trkpt>
      <trkpt lat="49.18066" lon="1.93017">
        <ele>68.2</ele>
        <time>2022-12-04T17:51:52Z</time>
      </trkpt>
      <trkpt lat="49.18081" lon="1.93035">
        <ele>68</ele>
        <time>2022-12-04T17:54:36Z</time>
      </trkpt>
      <trkpt lat="49.18251" lon="1.92884">
        <ele>70</ele>
        <time>2022-12-04T17:58:32Z</time>
      </trkpt>
      <trkpt lat="49.18392" lon="1.92765">
        <ele>77.1</ele>
      </trkpt>
      <trkpt lat="49.18433" lon="1.92727">
        <ele>75.3</ele>
      </trkpt>
      <trkpt lat="49.18498" lon="1.9265">
        <ele>73.5</ele>
        <time>2022-12-04T18:06:54Z</time>
      </trkpt>
      <trkpt lat="49.18576" lon="1.9253">
        <ele>74.3</ele>
      </trkpt>
      <trkpt lat="49.18633" lon="1.92399">
        <ele>80.2</ele>
        <time>2022-12-04T18:07:49Z</time>
      </trkpt>
      <trkpt lat="49.18687" lon="1.9234">
        <ele>77.1</ele>
        <time>2022-12-04T18:08:34Z</time>
      </trkpt>
      <trkpt lat="49.18704" lon="1.92334">
        <ele>75.7</ele>
      </trkpt>
      <trkpt lat="49.18799" lon="1.92351">
        <ele>74.1</ele>
      </trkpt>
      <trkpt lat="49.18862" lon="1.9236">
        <ele>75.9</ele>
      </trkpt>
      <trkpt lat="49.18897" lon="1.92332">
        <ele>74.4</ele>
      </trkpt>
      <trkpt lat="49.18952" lon="1.9234">
        <ele>75.9</ele>
      </trkpt>
      <trkpt lat="49.19103" lon="1.9251">
        <ele>76.4</ele>
      </trkpt>
      <trkpt lat="49.19183" lon="1.9272">
        <ele>83</ele>
        <time>2022-12-04T18:09:27Z</time>
      </trkpt>
      <trkpt lat="49.19215" lon="1.92749">
        <ele>79.3</ele>
        <time>2022-12-04T18:10:03Z</time>
      </trkpt>
      <trkpt lat="49.19229" lon="1.92745">
        <ele>79.6</ele>
        <time>2022-12-04T18:10:14Z</time>
      </trkpt>
      <trkpt lat="49.19263" lon="1.9278">
        <ele>87.2</ele>
        <time>2022-12-04T18:10:47Z</time>
      </trkpt>
      <trkpt lat="49.19309" lon="1.92855">
        <ele>100.5</ele>
        <time>2022-12-04T18:11:41Z</time>
      </trkpt>
      <trkpt lat="49.19317" lon="1.92865">
        <ele>101.6</ele>
        <time>2022-12-04T18:11:49Z</time>
      </trkpt>
      <trkpt lat="49.19315" lon="1.92916">
        <ele>99.7</ele>
        <time>2022-12-04T18:12:19Z</time>
      </trkpt>
      <trkpt lat="49.19337" lon="1.93006">
        <ele>99.3</ele>
        <time>2022-12-04T18:12:39Z</time>
      </trkpt>
      <trkpt lat="49.19355" lon="1.93055">
        <ele>100.7</ele>
        <time>2022-12-04T18:13:02Z</time>
      </trkpt>
      <trkpt lat="49.19374" lon="1.93144">
        <ele>100.8</ele>
        <time>2022-12-04T18:13:25Z</time>
      </trkpt>
      <trkpt lat="49.19393" lon="1.93201">
        <ele>102.5</ele>
        <time>2022-12-04T18:13:37Z</time>
      </trkpt>
      <trkpt lat="49.19413" lon="1.93211">
        <ele>104.6</ele>
        <time>2022-12-04T18:14:23Z</time>
      </trkpt>
      <trkpt lat="49.19537" lon="1.9299">
        <ele>122.9</ele>
        <time>2022-12-04T18:14:41Z</time>
      </trkpt>
      <trkpt lat="49.19539" lon="1.9294">
        <ele>124.2</ele>
        <time>2022-12-04T18:14:54Z</time>
      </trkpt>
      <trkpt lat="49.19534" lon="1.92903">
        <ele>125.1</ele>
        <time>2022-12-04T18:15:14Z</time>
      </trkpt>
      <trkpt lat="49.19531" lon="1.92836">
        <ele>126.1</ele>
        <time>2022-12-04T18:15:49Z</time>
      </trkpt>
      <trkpt lat="49.19537" lon="1.92777">
        <ele>126</ele>
        <time>2022-12-04T18:16:20Z</time>
      </trkpt>
      <trkpt lat="49.19535" lon="1.92761">
        <ele>126</ele>
        <time>2022-12-04T18:16:29Z</time>
      </trkpt>
      <trkpt lat="49.19498" lon="1.92632">
        <ele>125.2</ele>
        <time>2022-12-04T18:17:43Z</time>
      </trkpt>
      <trkpt lat="49.19463" lon="1.92619">
        <ele>123.3</ele>
        <time>2022-12-04T18:18:12Z</time>
      </trkpt>
      <trkpt lat="49.1945" lon="1.9261">
        <ele>122.4</ele>
        <time>2022-12-04T18:18:23Z</time>
      </trkpt>
      <trkpt lat="49.19419" lon="1.92564">
        <ele>117.4</ele>
        <time>2022-12-04T18:18:58Z</time>
      </trkpt>
      <trkpt lat="49.19355" lon="1.92514">
        <ele>110.7</ele>
        <time>2022-12-04T18:19:55Z</time>
      </trkpt>
      <trkpt lat="49.1924" lon="1.9243">
        <ele>101.4</ele>
      </trkpt>
      <trkpt lat="49.19079" lon="1.9225">
        <ele>88.1</ele>
      </trkpt>
      <trkpt lat="49.19018" lon="1.92192">
        <ele>83.2</ele>
      </trkpt>
      <trkpt lat="49.18971" lon="1.92136">
        <ele>80</ele>
        <time>2022-12-04T18:27:15Z</time>
      </trkpt>
      <trkpt lat="49.18947" lon="1.92093">
        <ele>76.4</ele>
        <time>2022-12-04T18:27:59Z</time>
      </trkpt>
      <trkpt lat="49.18959" lon="1.91996">
        <ele>85.2</ele>
        <time>2022-12-04T18:28:50Z</time>
      </trkpt>
      <trkpt lat="49.18956" lon="1.91946">
        <ele>83.6</ele>
        <time>2022-12-04T18:29:17Z</time>
      </trkpt>
      <trkpt lat="49.1896" lon="1.91922">
        <ele>81.7</ele>
        <time>2022-12-04T18:29:30Z</time>
      </trkpt>
      <trkpt lat="49.18957" lon="1.91907">
        <ele>79.4</ele>
        <time>2022-12-04T18:29:38Z</time>
      </trkpt>
      <trkpt lat="49.1898" lon="1.91836">
        <ele>79.3</ele>
        <time>2022-12-04T18:30:19Z</time>
      </trkpt>
      <trkpt lat="49.18993" lon="1.91781">
        <ele>75.4</ele>
        <time>2022-12-04T18:30:50Z</time>
      </trkpt>
      <trkpt lat="49.19054" lon="1.91707">
        <ele>75.8</ele>
        <time>2022-12-04T18:31:52Z</time>
      </trkpt>
      <trkpt lat="49.1907" lon="1.91696">
        <ele>75.1</ele>
        <time>2022-12-04T18:32:06Z</time>
      </trkpt>
      <trkpt lat="49.19129" lon="1.91761">
        <ele>78.5</ele>
        <time>2022-12-04T18:33:05Z</time>
      </trkpt>
      <trkpt lat="49.19162" lon="1.91782">
        <ele>77.8</ele>
        <time>2022-12-04T18:33:33Z</time>
      </trkpt>
      <trkpt lat="49.1921" lon="1.91802">
        <ele>77.3</ele>
        <time>2022-12-04T18:34:13Z</time>
      </trkpt>
      <trkpt lat="49.19235" lon="1.91807">
        <ele>77.2</ele>
        <time>2022-12-04T18:34:33Z</time>
      </trkpt>
      <trkpt lat="49.19261" lon="1.91783">
        <ele>75.7</ele>
        <time>2022-12-04T18:34:58Z</time>
      </trkpt>
      <trkpt lat="49.19265" lon="1.9176">
        <ele>76.8</ele>
        <time>2022-12-04T18:35:10Z</time>
      </trkpt>
      <trkpt lat="49.19263" lon="1.91745">
        <ele>78.1</ele>
        <time>2022-12-04T18:35:18Z</time>
      </trkpt>
      <trkpt lat="49.19253" lon="1.91753">
        <ele>76.9</ele>
        <time>2022-12-04T18:35:27Z</time>
      </trkpt>
      <trkpt lat="49.19213" lon="1.9172">
        <ele>77.5</ele>
        <time>2022-12-04T18:36:03Z</time>
      </trkpt>
      <trkpt lat="49.19198" lon="1.91687">
        <ele>78.4</ele>
        <time>2022-12-04T18:36:24Z</time>
      </trkpt>
      <trkpt lat="49.19195" lon="1.9167">
        <ele>79.8</ele>
      </trkpt>
      <trkpt lat="49.19185" lon="1.91649">
        <ele>80.8</ele>
        <time>2022-12-04T18:36:47Z</time>
      </trkpt>
      <trkpt lat="49.19143" lon="1.91585">
        <ele>78.9</ele>
        <time>2022-12-04T18:37:34Z</time>
      </trkpt>
      <trkpt lat="49.19137" lon="1.91556">
        <ele>80.4</ele>
        <time>2022-12-04T18:37:51Z</time>
      </trkpt>
      <trkpt lat="49.19139" lon="1.91507">
        <ele>80.3</ele>
        <time>2022-12-04T18:38:17Z</time>
      </trkpt>
      <trkpt lat="49.19149" lon="1.91429">
        <ele>79.4</ele>
        <time>2022-12-04T18:38:58Z</time>
      </trkpt>
      <trkpt lat="49.19162" lon="1.91361">
        <ele>80</ele>
        <time>2022-12-04T18:39:35Z</time>
      </trkpt>
      <trkpt lat="49.19173" lon="1.91281">
        <ele>79.9</ele>
        <time>2022-12-04T18:40:18Z</time>
      </trkpt>
      <trkpt lat="49.19174" lon="1.91257">
        <ele>79.2</ele>
        <time>2022-12-04T18:40:31Z</time>
      </trkpt>
      <trkpt lat="49.19171" lon="1.91246">
        <ele>77.9</ele>
        <time>2022-12-04T18:40:37Z</time>
      </trkpt>
      <trkpt lat="49.19165" lon="1.91239">
        <ele>76.5</ele>
        <time>2022-12-04T18:40:43Z</time>
      </trkpt>
      <trkpt lat="49.19158" lon="1.9124">
        <ele>76.1</ele>
        <time>2022-12-04T18:40:49Z</time>
      </trkpt>
      <trkpt lat="49.19085" lon="1.91317">
        <ele>72.5</ele>
      </trkpt>
      <trkpt lat="49.19044" lon="1.91427">
        <ele>75.6</ele>
        <time>2022-12-04T18:43:06Z</time>
      </trkpt>
      <trkpt lat="49.19014" lon="1.91497">
        <ele>75.3</ele>
        <time>2022-12-04T18:43:49Z</time>
      </trkpt>
      <trkpt lat="49.19004" lon="1.91519">
        <ele>74.7</ele>
        <time>2022-12-04T18:44:03Z</time>
      </trkpt>
      <trkpt lat="49.18999" lon="1.91537">
        <ele>73.8</ele>
        <time>2022-12-04T18:44:14Z</time>
      </trkpt>
      <trkpt lat="49.19002" lon="1.91575">
        <ele>73</ele>
        <time>2022-12-04T18:44:34Z</time>
      </trkpt>
      <trkpt lat="49.18968" lon="1.91543">
        <ele>77.1</ele>
        <time>2022-12-04T18:47:46Z</time>
      </trkpt>
      <trkpt lat="49.18959" lon="1.91546">
        <ele>78.3</ele>
        <time>2022-12-04T18:47:53Z</time>
      </trkpt>
      <trkpt lat="49.18948" lon="1.91536">
        <ele>81.8</ele>
        <time>2022-12-04T18:48:04Z</time>
      </trkpt>
      <trkpt lat="49.18932" lon="1.9155">
        <ele>82.3</ele>
        <time>2022-12-04T18:48:18Z</time>
      </trkpt>
      <trkpt lat="49.18855" lon="1.91605">
        <ele>88.6</ele>
        <time>2022-12-04T18:49:26Z</time>
      </trkpt>
      <trkpt lat="49.18824" lon="1.91644">
        <ele>90.7</ele>
        <time>2022-12-04T18:49:59Z</time>
      </trkpt>
      <trkpt lat="49.18793" lon="1.91692">
        <ele>92.9</ele>
        <time>2022-12-04T18:50:34Z</time>
      </trkpt>
      <trkpt lat="49.18744" lon="1.91775">
        <ele>97.4</ele>
        <time>2022-12-04T18:51:32Z</time>
      </trkpt>
      <trkpt lat="49.18717" lon="1.91795">
        <ele>99.3</ele>
        <time>2022-12-04T18:51:56Z</time>
      </trkpt>
      <trkpt lat="49.18693" lon="1.9179">
        <ele>100.6</ele>
        <time>2022-12-04T18:52:16Z</time>
      </trkpt>
      <trkpt lat="49.18666" lon="1.91808">
        <ele>101</ele>
        <time>2022-12-04T18:52:39Z</time>
      </trkpt>
      <trkpt lat="49.18624" lon="1.91866">
        <ele>100</ele>
        <time>2022-12-04T18:53:25Z</time>
      </trkpt>
      <trkpt lat="49.18575" lon="1.91922">
        <ele>98.6</ele>
        <time>2022-12-04T18:54:14Z</time>
      </trkpt>
      <trkpt lat="49.18542" lon="1.91965">
        <ele>96.8</ele>
        <time>2022-12-04T18:54:48Z</time>
      </trkpt>
      <trkpt lat="49.1849" lon="1.92092">
        <ele>95.6</ele>
        <time>2022-12-04T18:56:07Z</time>
      </trkpt>
      <trkpt lat="49.18459" lon="1.92167">
        <ele>95</ele>
        <time>2022-12-04T18:56:53Z</time>
      </trkpt>
      <trkpt lat="49.18391" lon="1.9226">
        <ele>92.9</ele>
        <time>2022-12-04T18:58:06Z</time>
      </trkpt>
      <trkpt lat="49.18332" lon="1.92348">
        <ele>95.6</ele>
        <time>2022-12-04T18:59:12Z</time>
      </trkpt>
      <trkpt lat="49.18289" lon="1.92405">
        <ele>95.3</ele>
        <time>2022-12-04T18:59:58Z</time>
      </trkpt>
      <trkpt lat="49.18192" lon="1.9251">
        <ele>96.3</ele>
        <time>2022-12-04T19:01:33Z</time>
      </trkpt>
      <trkpt lat="49.18165" lon="1.92542">
        <ele>96</ele>
        <time>2022-12-04T19:02:00Z</time>
      </trkpt>
      <trkpt lat="49.18124" lon="1.92631">
        <ele>93</ele>
      </trkpt>
      <trkpt lat="49.18107" lon="1.92719">
        <ele>91.5</ele>
        <time>2022-12-04T19:03:45Z</time>
      </trkpt>
      <trkpt lat="49.18078" lon="1.92813">
        <ele>89.3</ele>
        <time>2022-12-04T19:04:39Z</time>
      </trkpt>
      <trkpt lat="49.18042" lon="1.9286">
        <ele>87.6</ele>
        <time>2022-12-04T19:05:18Z</time>
      </trkpt>
      <trkpt lat="49.18037" lon="1.92865">
        <ele>87.2</ele>
      </trkpt>
      <trkpt lat="49.17989" lon="1.92898">
        <ele>85.3</ele>
      </trkpt>
      <trkpt lat="49.17935" lon="1.92931">
        <ele>84.4</ele>
        <time>2022-12-04T19:06:50Z</time>
      </trkpt>
      <trkpt lat="49.17904" lon="1.92931">
        <ele>83.1</ele>
        <time>2022-12-04T19:07:15Z</time>
      </trkpt>
      <trkpt lat="49.17823" lon="1.92896">
        <ele>76.8</ele>
        <time>2022-12-04T19:08:22Z</time>
      </trkpt>
      <trkpt lat="49.17788" lon="1.92888">
        <ele>72.6</ele>
        <time>2022-12-04T19:08:51Z</time>
      </trkpt>
      <trkpt lat="49.17752" lon="1.92874">
        <ele>72.3</ele>
        <time>2022-12-04T19:09:21Z</time>
      </trkpt>
      <trkpt lat="49.17716" lon="1.92873">
        <ele>71.4</ele>
        <time>2022-12-04T19:09:49Z</time>
      </trkpt>
      <trkpt lat="49.17672" lon="1.92884">
        <ele>71</ele>
        <time>2022-12-04T19:10:25Z</time>
      </trkpt>
      <trkpt lat="49.17628" lon="1.92906">
        <ele>71.8</ele>
        <time>2022-12-04T19:11:02Z</time>
      </trkpt>
      <trkpt lat="49.17602" lon="1.92913">
        <ele>71.4</ele>
        <time>2022-12-04T19:11:23Z</time>
      </trkpt>
      <trkpt lat="49.17585" lon="1.92904">
        <ele>71.9</ele>
        <time>2022-12-04T19:11:38Z</time>
      </trkpt>
      <trkpt lat="49.17553" lon="1.92912">
        <ele>68.5</ele>
        <time>2022-12-04T19:12:11Z</time>
      </trkpt>
      <trkpt lat="49.17537" lon="1.93027">
        <ele>67.7</ele>
        <time>2022-12-04T19:12:32Z</time>
      </trkpt>
      <trkpt lat="49.17533" lon="1.93096">
        <ele>68.9</ele>
        <time>2022-12-04T19:16:20Z</time>
      </trkpt>
      <trkpt lat="49.17496" lon="1.93141">
        <ele>70.1</ele>
        <time>2022-12-04T19:16:56Z</time>
      </trkpt>
      <trkpt lat="49.17458" lon="1.93177">
        <ele>69.9</ele>
        <time>2022-12-04T19:17:33Z</time>
      </trkpt>
      <trkpt lat="49.17402" lon="1.93191">
        <ele>69</ele>
        <time>2022-12-04T19:18:18Z</time>
      </trkpt>
      <trkpt lat="49.17362" lon="1.93188">
        <ele>69.4</ele>
        <time>2022-12-04T19:18:51Z</time>
      </trkpt>
      <trkpt lat="49.1734" lon="1.93193">
        <ele>67.6</ele>
        <time>2022-12-04T19:19:08Z</time>
      </trkpt>
      <trkpt lat="49.17285" lon="1.9323">
        <ele>69.3</ele>
        <time>2022-12-04T19:19:56Z</time>
      </trkpt>
      <trkpt lat="49.17214" lon="1.93262">
        <ele>69.8</ele>
        <time>2022-12-04T19:20:56Z</time>
      </trkpt>
      <trkpt lat="49.17154" lon="1.93306">
        <ele>70.9</ele>
        <time>2022-12-04T19:21:49Z</time>
      </trkpt>
      <trkpt lat="49.17133" lon="1.93314">
        <ele>71.1</ele>
        <time>2022-12-04T19:22:06Z</time>
      </trkpt>
      <trkpt lat="49.17125" lon="1.93315">
        <ele>71</ele>
        <time>2022-12-04T19:22:13Z</time>
      </trkpt>
      <trkpt lat="49.17117" lon="1.93312">
        <ele>71.3</ele>
        <time>2022-12-04T19:22:19Z</time>
      </trkpt>
      <trkpt lat="49.17015" lon="1.93254">
        <ele>71.5</ele>
        <time>2022-12-04T19:23:46Z</time>
      </trkpt>
      <trkpt lat="49.16982" lon="1.93246">
        <ele>72.3</ele>
        <time>2022-12-04T19:24:13Z</time>
      </trkpt>
      <trkpt lat="49.16924" lon="1.93253">
        <ele>75.5</ele>
        <time>2022-12-04T19:25:00Z</time>
      </trkpt>
      <trkpt lat="49.16872" lon="1.93274">
        <ele>82</ele>
        <time>2022-12-04T19:25:43Z</time>
      </trkpt>
      <trkpt lat="49.16814" lon="1.93312">
        <ele>87.9</ele>
        <time>2022-12-04T19:26:33Z</time>
      </trkpt>
      <trkpt lat="49.16799" lon="1.93364">
        <ele>87.4</ele>
        <time>2022-12-04T19:27:03Z</time>
      </trkpt>
      <trkpt lat="49.16791" lon="1.93422">
        <ele>86.5</ele>
        <time>2022-12-04T19:27:34Z</time>
      </trkpt>
      <trkpt lat="49.16789" lon="1.93455">
        <ele>85.9</ele>
        <time>2022-12-04T19:27:52Z</time>
      </trkpt>
      <trkpt lat="49.16792" lon="1.93515">
        <ele>81.2</ele>
        <time>2022-12-04T19:28:23Z</time>
      </trkpt>
      <trkpt lat="49.16783" lon="1.9355">
        <ele>78.3</ele>
        <time>2022-12-04T19:28:43Z</time>
      </trkpt>
      <trkpt lat="49.16782" lon="1.93562">
        <ele>76.3</ele>
        <time>2022-12-04T19:28:49Z</time>
      </trkpt>
      <trkpt lat="49.16791" lon="1.93629">
        <ele>69.3</ele>
        <time>2022-12-04T19:29:25Z</time>
      </trkpt>
      <trkpt lat="49.16796" lon="1.93643">
        <ele>69.9</ele>
        <time>2022-12-04T19:29:33Z</time>
      </trkpt>
      <trkpt lat="49.16814" lon="1.93669">
        <ele>71.6</ele>
        <time>2022-12-04T19:29:53Z</time>
      </trkpt>
      <trkpt lat="49.16853" lon="1.93784">
        <ele>69.6</ele>
        <time>2022-12-04T19:31:01Z</time>
      </trkpt>
      <trkpt lat="49.16884" lon="1.93847">
        <ele>66.5</ele>
        <time>2022-12-04T19:31:42Z</time>
      </trkpt>
      <trkpt lat="49.16879" lon="1.93858">
        <ele>66.1</ele>
        <time>2022-12-04T19:31:49Z</time>
      </trkpt>
      <trkpt lat="49.1687" lon="1.93855">
        <ele>66.2</ele>
        <time>2022-12-04T19:31:57Z</time>
      </trkpt>
      <trkpt lat="49.16844" lon="1.93832">
        <ele>65.9</ele>
        <time>2022-12-04T19:32:21Z</time>
      </trkpt>
      <trkpt lat="49.16826" lon="1.93917">
        <ele>63</ele>
        <time>2022-12-04T19:33:07Z</time>
      </trkpt>
      <trkpt lat="49.16808" lon="1.93967">
        <ele>63</ele>
        <time>2022-12-04T19:33:37Z</time>
      </trkpt>
      <trkpt lat="49.16791" lon="1.94002">
        <ele>63.5</ele>
        <time>2022-12-04T19:34:00Z</time>
      </trkpt>
      <trkpt lat="49.16773" lon="1.94028">
        <ele>64.4</ele>
        <time>2022-12-04T19:34:20Z</time>
      </trkpt>
      <trkpt lat="49.16754" lon="1.94046">
        <ele>66.9</ele>
        <time>2022-12-04T19:34:38Z</time>
      </trkpt>
      <trkpt lat="49.16752" lon="1.94045">
        <ele>67.1</ele>
        <time>2022-12-04T19:34:39Z</time>
      </trkpt>
      <trkpt lat="49.16719" lon="1.94008">
        <ele>70.8</ele>
        <time>2022-12-04T19:35:12Z</time>
      </trkpt>
      <trkpt lat="49.16658" lon="1.93921">
        <ele>70.6</ele>
        <time>2022-12-04T19:36:19Z</time>
      </trkpt>
      <trkpt lat="49.1665" lon="1.93915">
        <ele>70.6</ele>
        <time>2022-12-04T19:36:26Z</time>
      </trkpt>
      <trkpt lat="49.16626" lon="1.93905">
        <ele>72.4</ele>
        <time>2022-12-04T19:36:46Z</time>
      </trkpt>
      <trkpt lat="49.16548" lon="1.93879">
        <ele>73.7</ele>
        <time>2022-12-04T19:37:50Z</time>
      </trkpt>
      <trkpt lat="49.16483" lon="1.93869">
        <ele>69.2</ele>
        <time>2022-12-04T19:38:42Z</time>
      </trkpt>
      <trkpt lat="49.16446" lon="1.93849">
        <ele>67.2</ele>
        <time>2022-12-04T19:39:14Z</time>
      </trkpt>
      <trkpt lat="49.16394" lon="1.93828">
        <ele>66.9</ele>
        <time>2022-12-04T19:39:57Z</time>
      </trkpt>
      <trkpt lat="49.16373" lon="1.93829">
        <ele>67.4</ele>
        <time>2022-12-04T19:40:14Z</time>
      </trkpt>
      <trkpt lat="49.16361" lon="1.93832">
        <ele>67.8</ele>
        <time>2022-12-04T19:40:23Z</time>
      </trkpt>
      <trkpt lat="49.16335" lon="1.93833">
        <ele>68</ele>
        <time>2022-12-04T19:40:44Z</time>
      </trkpt>
      <trkpt lat="49.16296" lon="1.93853">
        <ele>69.1</ele>
        <time>2022-12-04T19:41:17Z</time>
      </trkpt>
      <trkpt lat="49.16281" lon="1.93864">
        <ele>68.2</ele>
        <time>2022-12-04T19:41:30Z</time>
      </trkpt>
      <trkpt lat="49.16252" lon="1.93899">
        <ele>69.3</ele>
        <time>2022-12-04T19:42:00Z</time>
      </trkpt>
      <trkpt lat="49.16239" lon="1.93911">
        <ele>69.6</ele>
        <time>2022-12-04T19:42:13Z</time>
      </trkpt>
      <trkpt lat="49.16231" lon="1.93891">
        <ele>66.5</ele>
        <time>2022-12-04T19:42:24Z</time>
      </trkpt>
      <trkpt lat="49.1623" lon="1.93887">
        <ele>66.1</ele>
      </trkpt>
      <trkpt lat="49.16227" lon="1.93884">
        <ele>65.8</ele>
      </trkpt>
      <trkpt lat="49.16223" lon="1.93884">
        <ele>65.7</ele>
        <time>2022-12-04T19:42:30Z</time>
      </trkpt>
      <trkpt lat="49.16213" lon="1.93889">
        <ele>65.7</ele>
        <time>2022-12-04T19:42:40Z</time>
      </trkpt>
      <trkpt lat="49.1621" lon="1.93887">
        <ele>65.5</ele>
      </trkpt>
      <trkpt lat="49.16208" lon="1.93882">
        <ele>65.2</ele>
        <time>2022-12-04T19:42:46Z</time>
      </trkpt>
      <trkpt lat="49.16204" lon="1.93856">
        <ele>64.5</ele>
        <time>2022-12-04T19:43:00Z</time>
      </trkpt>
      <trkpt lat="49.16187" lon="1.93787">
        <ele>64.2</ele>
        <time>2022-12-04T19:43:38Z</time>
      </trkpt>
      <trkpt lat="49.16139" lon="1.93781">
        <ele>64</ele>
        <time>2022-12-04T19:44:17Z</time>
      </trkpt>
      <trkpt lat="49.16059" lon="1.93789">
        <ele>64</ele>
        <time>2022-12-04T19:45:21Z</time>
      </trkpt>
      <trkpt lat="49.16027" lon="1.93792">
        <ele>64</ele>
        <time>2022-12-04T19:45:47Z</time>
      </trkpt>
      <trkpt lat="49.1602" lon="1.93729">
        <ele>64.1</ele>
        <time>2022-12-04T19:46:20Z</time>
      </trkpt>
      <trkpt lat="49.16024" lon="1.93728">
        <ele>64</ele>
        <time>2022-12-04T19:46:24Z</time>
      </trkpt>
      <trkpt lat="49.16022" lon="1.93712">
        <ele>64</ele>
        <time>2022-12-04T19:46:32Z</time>
      </trkpt>
      <trkpt lat="49.16023" lon="1.93682">
        <ele>64.4</ele>
        <time>2022-12-04T19:46:48Z</time>
      </trkpt>
      <trkpt lat="49.1602" lon="1.93681">
        <ele>64.5</ele>
        <time>2022-12-04T19:46:50Z</time>
      </trkpt>
      <trkpt lat="49.16022" lon="1.93642">
        <ele>65.7</ele>
        <time>2022-12-04T19:47:11Z</time>
      </trkpt>
      <trkpt lat="49.1595" lon="1.93631">
        <ele>63.8</ele>
        <time>2022-12-04T19:48:09Z</time>
      </trkpt>
      <trkpt lat="49.15917" lon="1.93628">
        <ele>63.2</ele>
        <time>2022-12-04T19:48:35Z</time>
      </trkpt>
      <trkpt lat="49.15889" lon="1.93629">
        <ele>63.3</ele>
        <time>2022-12-04T19:48:58Z</time>
      </trkpt>
      <trkpt lat="49.15877" lon="1.93624">
        <ele>62.9</ele>
        <time>2022-12-04T19:49:08Z</time>
      </trkpt>
      <trkpt lat="49.15857" lon="1.93624">
        <ele>62.9</ele>
        <time>2022-12-04T19:49:24Z</time>
      </trkpt>
      <trkpt lat="49.15776" lon="1.93646">
        <ele>62.2</ele>
        <time>2022-12-04T19:50:29Z</time>
      </trkpt>
      <trkpt lat="49.15734" lon="1.93661">
        <ele>61.8</ele>
        <time>2022-12-04T19:51:04Z</time>
      </trkpt>
      <trkpt lat="49.15699" lon="1.93679">
        <ele>61.5</ele>
        <time>2022-12-04T19:51:34Z</time>
      </trkpt>
      <trkpt lat="49.15654" lon="1.93705">
        <ele>61.7</ele>
        <time>2022-12-04T19:52:12Z</time>
      </trkpt>
      <trkpt lat="49.15613" lon="1.93736">
        <ele>61.5</ele>
        <time>2022-12-04T19:52:49Z</time>
      </trkpt>
      <trkpt lat="49.15532" lon="1.93806">
        <ele>61.1</ele>
        <time>2022-12-04T19:54:03Z</time>
      </trkpt>
      <trkpt lat="49.15495" lon="1.93847">
        <ele>60.4</ele>
        <time>2022-12-04T19:54:40Z</time>
      </trkpt>
      <trkpt lat="49.15422" lon="1.93911">
        <ele>60.2</ele>
        <time>2022-12-04T19:55:47Z</time>
      </trkpt>
      <trkpt lat="49.15387" lon="1.93936">
        <ele>60.6</ele>
        <time>2022-12-04T19:56:18Z</time>
      </trkpt>
      <trkpt lat="49.15353" lon="1.93957">
        <ele>60.3</ele>
        <time>2022-12-04T19:56:47Z</time>
      </trkpt>
      <trkpt lat="49.15332" lon="1.93966">
        <ele>60</ele>
        <time>2022-12-04T19:57:05Z</time>
      </trkpt>
      <trkpt lat="49.1532" lon="1.93969">
        <ele>60</ele>
        <time>2022-12-04T19:57:15Z</time>
      </trkpt>
      <trkpt lat="49.15279" lon="1.93838">
        <ele>64.6</ele>
        <time>2022-12-04T19:58:31Z</time>
      </trkpt>
      <trkpt lat="49.1525" lon="1.939">
        <ele>66.2</ele>
        <time>2022-12-04T19:59:11Z</time>
      </trkpt>
      <trkpt lat="49.15223" lon="1.93945">
        <ele>65.8</ele>
        <time>2022-12-04T19:59:43Z</time>
      </trkpt>
      <trkpt lat="49.15211" lon="1.93956">
        <ele>64.7</ele>
        <time>2022-12-04T19:59:54Z</time>
      </trkpt>
      <trkpt lat="49.15202" lon="1.93959">
        <ele>64.6</ele>
        <time>2022-12-04T20:00:01Z</time>
      </trkpt>
      <trkpt lat="49.15188" lon="1.93958">
        <ele>64.7</ele>
        <time>2022-12-04T20:00:12Z</time>
      </trkpt>
      <trkpt lat="49.15172" lon="1.93942">
        <ele>65.7</ele>
        <time>2022-12-04T20:00:28Z</time>
      </trkpt>
      <trkpt lat="49.15145" lon="1.93877">
        <ele>65.5</ele>
        <time>2022-12-04T20:01:08Z</time>
      </trkpt>
      <trkpt lat="49.15124" lon="1.93793">
        <ele>67.1</ele>
        <time>2022-12-04T20:01:55Z</time>
      </trkpt>
      <trkpt lat="49.15099" lon="1.9374">
        <ele>66.7</ele>
        <time>2022-12-04T20:02:29Z</time>
      </trkpt>
      <trkpt lat="49.15076" lon="1.937">
        <ele>66.1</ele>
        <time>2022-12-04T20:02:57Z</time>
      </trkpt>
      <trkpt lat="49.1505" lon="1.93663">
        <ele>66</ele>
        <time>2022-12-04T20:03:26Z</time>
      </trkpt>
      <trkpt lat="49.15" lon="1.93612">
        <ele>65.9</ele>
        <time>2022-12-04T20:04:14Z</time>
      </trkpt>
      <trkpt lat="49.1496" lon="1.93588">
        <ele>65.5</ele>
        <time>2022-12-04T20:04:48Z</time>
      </trkpt>
      <trkpt lat="49.14906" lon="1.93656">
        <ele>58.2</ele>
        <time>2022-12-04T20:05:30Z</time>
      </trkpt>
      <trkpt lat="49.14854" lon="1.93638">
        <ele>58</ele>
        <time>2022-12-04T20:06:05Z</time>
      </trkpt>
      <trkpt lat="49.14806" lon="1.93604">
        <ele>58.5</ele>
        <time>2022-12-04T20:06:39Z</time>
      </trkpt>
      <trkpt lat="49.14709" lon="1.93643">
        <ele>57.9</ele>
        <time>2022-12-04T20:07:37Z</time>
      </trkpt>
      <trkpt lat="49.14664" lon="1.93642">
        <ele>58.9</ele>
        <time>2022-12-04T20:08:26Z</time>
      </trkpt>
      <trkpt lat="49.14661" lon="1.93674">
        <ele>58</ele>
        <time>2022-12-04T20:08:57Z</time>
      </trkpt>
      <trkpt lat="49.14654" lon="1.936">
        <ele>61</ele>
        <time>2022-12-04T20:09:04Z</time>
      </trkpt>
      <trkpt lat="49.14612" lon="1.93582">
        <ele>62.2</ele>
        <time>2022-12-04T20:09:39Z</time>
      </trkpt>
      <trkpt lat="49.14557" lon="1.93544">
        <ele>62.4</ele>
        <time>2022-12-04T20:10:27Z</time>
      </trkpt>
      <trkpt lat="49.14544" lon="1.93528">
        <ele>63.1</ele>
        <time>2022-12-04T20:10:40Z</time>
      </trkpt>
      <trkpt lat="49.14522" lon="1.9348">
        <ele>63.7</ele>
        <time>2022-12-04T20:11:11Z</time>
      </trkpt>
      <trkpt lat="49.14505" lon="1.93482">
        <ele>61.6</ele>
        <time>2022-12-04T20:11:25Z</time>
      </trkpt>
      <trkpt lat="49.14415" lon="1.93506">
        <ele>60.7</ele>
        <time>2022-12-04T20:12:38Z</time>
      </trkpt>
      <trkpt lat="49.14374" lon="1.93515">
        <ele>59.4</ele>
        <time>2022-12-04T20:13:11Z</time>
      </trkpt>
      <trkpt lat="49.14329" lon="1.93514">
        <ele>59.8</ele>
        <time>2022-12-04T20:13:47Z</time>
      </trkpt>
      <trkpt lat="49.14218" lon="1.93552">
        <ele>63.9</ele>
        <time>2022-12-04T20:15:18Z</time>
      </trkpt>
      <trkpt lat="49.14192" lon="1.93568">
        <ele>61.1</ele>
        <time>2022-12-04T20:15:40Z</time>
      </trkpt>
      <trkpt lat="49.14136" lon="1.93556">
        <ele>58.9</ele>
        <time>2022-12-04T20:16:26Z</time>
      </trkpt>
      <trkpt lat="49.14085" lon="1.93514">
        <ele>59.2</ele>
        <time>2022-12-04T20:17:12Z</time>
      </trkpt>
      <trkpt lat="49.14002" lon="1.93468">
        <ele>59.5</ele>
        <time>2022-12-04T20:18:23Z</time>
      </trkpt>
      <trkpt lat="49.13921" lon="1.93527">
        <ele>57.9</ele>
        <time>2022-12-04T20:19:35Z</time>
      </trkpt>
      <trkpt lat="49.13885" lon="1.93544">
        <ele>59.2</ele>
        <time>2022-12-04T20:20:05Z</time>
      </trkpt>
      <trkpt lat="49.13713" lon="1.93745">
        <ele>61.2</ele>
        <time>2022-12-04T20:22:58Z</time>
      </trkpt>
      <trkpt lat="49.13699" lon="1.93757">
        <ele>64.2</ele>
        <time>2022-12-04T20:23:11Z</time>
      </trkpt>
      <trkpt lat="49.1369" lon="1.93811">
        <ele>63.1</ele>
        <time>2022-12-04T20:23:40Z</time>
      </trkpt>
      <trkpt lat="49.13648" lon="1.93905">
        <ele>65.8</ele>
        <time>2022-12-04T20:24:40Z</time>
      </trkpt>
      <trkpt lat="49.13625" lon="1.93938">
        <ele>66.6</ele>
        <time>2022-12-04T20:25:05Z</time>
      </trkpt>
      <trkpt lat="49.13649" lon="1.93815">
        <ele>72.1</ele>
        <time>2022-12-04T20:26:12Z</time>
      </trkpt>
      <trkpt lat="49.13669" lon="1.937">
        <ele>77.3</ele>
        <time>2022-12-04T20:27:15Z</time>
      </trkpt>
      <trkpt lat="49.13674" lon="1.93633">
        <ele>81.3</ele>
        <time>2022-12-04T20:27:50Z</time>
      </trkpt>
      <trkpt lat="49.13686" lon="1.93558">
        <ele>85.5</ele>
        <time>2022-12-04T20:28:30Z</time>
      </trkpt>
      <trkpt lat="49.13687" lon="1.93533">
        <ele>85.8</ele>
        <time>2022-12-04T20:28:44Z</time>
      </trkpt>
      <trkpt lat="49.13682" lon="1.93519">
        <ele>86.7</ele>
        <time>2022-12-04T20:28:52Z</time>
      </trkpt>
      <trkpt lat="49.13675" lon="1.9351">
        <ele>87.2</ele>
        <time>2022-12-04T20:28:59Z</time>
      </trkpt>
      <trkpt lat="49.13627" lon="1.93476">
        <ele>89.4</ele>
        <time>2022-12-04T20:29:42Z</time>
      </trkpt>
      <trkpt lat="49.13598" lon="1.93448">
        <ele>90.9</ele>
        <time>2022-12-04T20:30:09Z</time>
      </trkpt>
      <trkpt lat="49.13521" lon="1.93343">
        <ele>91.8</ele>
        <time>2022-12-04T20:31:32Z</time>
      </trkpt>
      <trkpt lat="49.13501" lon="1.93321">
        <ele>91.5</ele>
        <time>2022-12-04T20:31:51Z</time>
      </trkpt>
      <trkpt lat="49.13477" lon="1.93311">
        <ele>91.1</ele>
        <time>2022-12-04T20:32:11Z</time>
      </trkpt>
      <trkpt lat="49.13413" lon="1.93317">
        <ele>91</ele>
        <time>2022-12-04T20:33:03Z</time>
      </trkpt>
      <trkpt lat="49.13341" lon="1.93339">
        <ele>89.9</ele>
        <time>2022-12-04T20:34:01Z</time>
      </trkpt>
      <trkpt lat="49.13308" lon="1.93346">
        <ele>90</ele>
        <time>2022-12-04T20:34:28Z</time>
      </trkpt>
      <trkpt lat="49.13291" lon="1.93346">
        <ele>90</ele>
        <time>2022-12-04T20:34:42Z</time>
      </trkpt>
      <trkpt lat="49.13274" lon="1.93338">
        <ele>89.9</ele>
        <time>2022-12-04T20:34:56Z</time>
      </trkpt>
      <trkpt lat="49.13259" lon="1.93325">
        <ele>89</ele>
        <time>2022-12-04T20:35:10Z</time>
      </trkpt>
      <trkpt lat="49.13245" lon="1.933">
        <ele>87.6</ele>
        <time>2022-12-04T20:35:27Z</time>
      </trkpt>
      <trkpt lat="49.13232" lon="1.93332">
        <ele>87.7</ele>
        <time>2022-12-04T20:35:47Z</time>
      </trkpt>
      <trkpt lat="49.13209" lon="1.93378">
        <ele>87.7</ele>
        <time>2022-12-04T20:36:17Z</time>
      </trkpt>
      <trkpt lat="49.13094" lon="1.93657">
        <ele>83</ele>
        <time>2022-12-04T20:39:10Z</time>
      </trkpt>
      <trkpt lat="49.13034" lon="1.93737">
        <ele>82.8</ele>
        <time>2022-12-04T20:40:14Z</time>
      </trkpt>
      <trkpt lat="49.12831" lon="1.93769">
        <ele>70.1</ele>
        <time>2022-12-04T20:42:57Z</time>
      </trkpt>
      <trkpt lat="49.12748" lon="1.93768">
        <ele>61.2</ele>
        <time>2022-12-04T20:44:03Z</time>
      </trkpt>
      <trkpt lat="49.12675" lon="1.93859">
        <ele>63</ele>
        <time>2022-12-04T20:45:19Z</time>
      </trkpt>
      <trkpt lat="49.12645" lon="1.9387">
        <ele>60.4</ele>
        <time>2022-12-04T20:45:44Z</time>
      </trkpt>
      <trkpt lat="49.12611" lon="1.93858">
        <ele>56</ele>
      </trkpt>
      <trkpt lat="49.1258" lon="1.93841">
        <ele>55</ele>
        <time>2022-12-04T20:46:38Z</time>
      </trkpt>
      <trkpt lat="49.1254" lon="1.93809">
        <ele>55.5</ele>
      </trkpt>
      <trkpt lat="49.12518" lon="1.93786">
        <ele>56.2</ele>
        <time>2022-12-04T20:47:35Z</time>
      </trkpt>
      <trkpt lat="49.12488" lon="1.93743">
        <ele>61.7</ele>
        <time>2022-12-04T20:48:08Z</time>
      </trkpt>
      <trkpt lat="49.12488" lon="1.93735">
        <ele>62.9</ele>
        <time>2022-12-04T20:48:12Z</time>
      </trkpt>
    </trkseg>
  </trk>
</gpx>